Aviation Digital Data Service (ADDS)

Output produced by METARs form (0431 UTC 22 September 2017)
found at http://www.aviationweather.gov/adds/metars/
 
TAF AMD KVBG 212246Z 2122/2304 33010G20KT 9999 FEW040 SCT060 QNH2990INS 
     TEMPO 2122/2203 33020G30KT 520006 
     BECMG 2202/2203 33015G25KT 9000 BR SCT010 BKN015 510006 QNH2989INS 
     BECMG 2208/2209 32012G18KT 6000 BR SCT005 BKN010 BKN015 QNH2991INS 
     BECMG 2211/2212 33012KT 4800 BR SCT005 BKN010 QNH2992INS 
     BECMG 2214/2215 33009KT 8000 BR SCT005 SCT010 QNH2994INS 
     BECMG 2215/2216 33012KT 9999 NSW FEW005 SCT010 QNH2995INS 
     BECMG 2217/2218 33012G18KT 9999 SCT015 QNH2994INS 
     BECMG 2220/2221 32015G25KT 9999 FEW015 510006 QNH2992INS 
     BECMG 2301/2302 33012G18KT 9999 BKN015 QNH2990INS TX19/2122Z TN12/2214Z LAST NO AMDS AFT 2200 NEXT 2206
       
KVCT 212335Z 2200/2224 07012G18KT 6SM -TSRA SCT035CB BKN090 
     TEMPO 2200/2202 VRB12G25KT 4SM TSRA BKN030CB 
     FM220200 13008KT P6SM SCT030 BKN120 
     FM220700 10004KT P6SM SCT015 BKN250 
     TEMPO 2210/2214 5SM BR BKN015 
     FM221500 14010KT P6SM VCSH BKN025 BKN050 
     FM221800 12012KT P6SM SCT035 BKN050 
     PROB30 2219/2223 5SM TSRA BKN030CB
       
KVEL 212332Z 2200/2224 20022G33KT P6SM SCT120 
     FM220600 22015G24KT P6SM VCSH SCT110 BKN200 
     FM221200 20009KT P6SM VCSH SCT070 BKN110 
     FM221800 22011G21KT P6SM SCT070 BKN130
       
KVGT 212320Z 2200/2224 24018G28KT P6SM SCT090 SCT150 
     FM220300 26012G18KT P6SM FEW090 
     FM220600 32014G20KT P6SM SKC 
     FM221800 06006KT P6SM SKC
       
KVIS 212320Z 2200/2224 32007KT P6SM FEW050 
     FM220400 VRB03KT P6SM SKC
       
KVLD 212322Z 2200/2224 VRB03KT P6SM BKN100 
     FM220600 00000KT 3SM BR SCT001 
     FM221300 06004KT P6SM SCT030
       
KVNY 212340Z 2200/2224 14009KT P6SM SCT060 SCT070 
     FM220300 30004KT P6SM SKC 
     FM220600 VRB03KT P6SM SKC 
     FM222000 17008KT P6SM SKC
       
TAF KVPS 220100Z 2201/2307 16006KT 9999 FEW030 FEW150 SCT250 QNH2999INS 
     BECMG 2206/2207 35003KT 9999 FEW250 QNH2995INS 
     BECMG 2213/2214 04006KT 9999 FEW030 FEW250 QNH2997INS 
     BECMG 2217/2218 18010KT 9999 VCSH SCT030 BKN250 QNH2992INS 
     TEMPO 2218/2221 19015G25KT 6000 -TSRA BKN025CB BKN100 BKN250 
     BECMG 2222/2223 26005KT 9999 NSW FEW030 FEW120 BKN250 QNH2992INS TX31/2218Z TN23/2211Z FCST BY USAF WX MET TECH
       
KVQQ 212340Z 2200/2224 07003KT P6SM FEW030 BKN250 
     TEMPO 2207/2211 4SM BR 
     FM221300 06004KT P6SM SCT020 BKN200 
     FM221600 06009KT P6SM SCT030 SCT070 
     FM222000 07012KT P6SM VCSH BKN045
       
KVRB 212320Z 2200/2224 04008KT P6SM SCT025 SCT250 
     FM220300 06005KT P6SM VCSH SCT025 SCT250 
     FM221600 05011KT P6SM VCSH SCT030 BKN060
       
KVTN 212321Z 2200/2224 16014KT P6SM SKC 
     FM220200 13010KT P6SM SKC 
     FM220400 17010KT P6SM SKC WS015/19045KT 
     FM221200 22011KT P6SM FEW250 
     FM221800 27011KT P6SM FEW250